Time;durP1;ratioP1;P1;durP2;ratioP2;P2;SDS_P1;SDS_P2;PMS_P1;PMS_P2;Temp;Humidity;BMP_temperature;BMP_pressure;BME280_temperature;BME280_humidity;BME280_pressure;Samples;Min_cycle;Max_cycle;Signal;HPM_P1;HPM_P2
2021/03/20 00:00:11;;;;;;;27.27;25.83;;;-0.50;99.90;;;;;;5030494;28;20053;-71
2021/03/20 00:02:37;;;;;;;36.60;34.80;;;-0.50;99.90;;;;;;5034369;28;20041;-71
2021/03/20 00:05:03;;;;;;;8.25;7.55;;;-0.60;99.90;;;;;;5030999;28;20029;-71
2021/03/20 00:07:29;;;;;;;40.20;38.10;;;-0.60;99.90;;;;;;5024802;28;20087;-71
2021/03/20 00:09:54;;;;;;;34.47;32.80;;;-0.60;99.90;;;;;;5030845;28;20143;-71
2021/03/20 00:12:20;;;;;;;7.97;7.25;;;-0.60;99.90;;;;;;5014413;28;20036;-71
2021/03/20 00:14:46;;;;;;;37.92;36.00;;;-0.60;99.90;;;;;;5000144;28;20026;-71
2021/03/20 00:17:11;;;;;;;36.90;34.92;;;-0.60;99.90;;;;;;5013288;28;20026;-72
2021/03/20 00:19:37;;;;;;;35.95;34.15;;;-0.70;99.90;;;;;;5014519;28;20030;-72
2021/03/20 00:22:02;;;;;;;7.72;7.03;;;-0.60;99.90;;;;;;5012911;28;20033;-71
2021/03/20 00:24:28;;;;;;;7.75;6.90;;;-0.70;99.90;;;;;;5014364;28;20439;-72
2021/03/20 00:26:53;;;;;;;7.70;7.10;;;-0.80;99.90;;;;;;5025275;28;20021;-72
2021/03/20 00:29:19;;;;;;;7.15;6.25;;;-0.90;99.90;;;;;;5016610;28;20025;-71
2021/03/20 00:31:44;;;;;;;8.25;7.38;;;-0.90;99.90;;;;;;5014129;28;20029;-72
2021/03/20 00:34:10;;;;;;;7.57;6.88;;;-0.90;99.90;;;;;;5005142;28;20489;-73
2021/03/20 00:36:35;;;;;;;7.75;6.70;;;-0.90;99.90;;;;;;5033988;28;20033;-72
2021/03/20 00:39:03;;;;;;;7.88;7.18;;;-0.90;99.90;;;;;;5032761;28;20028;-72
2021/03/20 00:41:28;;;;;;;29.60;28.02;;;-0.90;99.90;;;;;;5033731;28;20025;-72
2021/03/20 00:43:53;;;;;;;8.05;7.30;;;-1.00;99.90;;;;;;5014959;28;20053;-72
2021/03/20 00:46:19;;;;;;;7.60;6.85;;;-0.90;99.90;;;;;;5013916;28;20034;-72
2021/03/20 00:48:45;;;;;;;35.22;33.50;;;-1.00;99.90;;;;;;5004590;28;20032;-72
2021/03/20 00:51:10;;;;;;;34.75;32.95;;;-0.80;99.90;;;;;;5033445;28;20025;-72
2021/03/20 00:53:36;;;;;;;8.88;7.75;;;-1.00;99.90;;;;;;5016429;28;20053;-72
2021/03/20 00:56:02;;;;;;;8.98;8.07;;;-1.10;99.90;;;;;;5023213;28;20036;-72
2021/03/20 00:58:34;;;;;;;7.65;6.95;;;-1.10;99.90;;;;;;5029496;28;20105;-72
2021/03/20 01:01:09;;;;;;;7.75;6.90;;;-1.10;99.90;;;;;;5012233;28;20052;-72
2021/03/20 01:03:38;;;;;;;7.70;7.00;;;-1.00;99.90;;;;;;5006481;28;20046;-72
2021/03/20 01:06:05;;;;;;;33.92;32.13;;;-1.00;99.90;;;;;;5019552;28;20503;-71
2021/03/20 01:08:31;;;;;;;7.75;7.05;;;-1.10;99.90;;;;;;5013436;28;20552;-71
2021/03/20 01:10:56;;;;;;;7.57;6.82;;;-1.10;99.90;;;;;;5013192;28;20101;-71
2021/03/20 01:13:22;;;;;;;7.55;6.85;;;-1.10;99.90;;;;;;5006499;28;20026;-71
2021/03/20 01:15:48;;;;;;;33.88;32.10;;;-1.10;99.90;;;;;;5021005;28;20189;-71
2021/03/20 01:18:14;;;;;;;7.10;6.40;;;-1.20;99.90;;;;;;5013477;28;20061;-71
2021/03/20 01:20:40;;;;;;;8.45;6.78;;;-1.20;99.90;;;;;;5013254;28;20117;-71
2021/03/20 01:23:06;;;;;;;7.00;6.30;;;-1.20;99.90;;;;;;5011878;28;20459;-71
2021/03/20 01:25:32;;;;;;;7.50;6.78;;;-1.40;99.90;;;;;;5000608;28;20018;-70
2021/03/20 01:27:58;;;;;;;9.38;6.88;;;-1.40;99.90;;;;;;5012949;28;20407;-70
2021/03/20 01:30:28;;;;;;;7.25;6.55;;;-1.40;99.90;;;;;;5026115;28;20029;-71
2021/03/20 01:32:54;;;;;;;7.63;6.93;;;-1.40;99.90;;;;;;5006822;28;20021;-71
2021/03/20 01:35:21;;;;;;;7.57;6.57;;;-1.50;99.90;;;;;;5032788;28;20569;-71
2021/03/20 01:37:47;;;;;;;7.15;6.55;;;-1.60;99.90;;;;;;5032901;28;20025;-71
2021/03/20 01:40:16;;;;;;;7.68;6.95;;;-1.60;99.90;;;;;;5032720;28;20029;-71
2021/03/20 01:42:45;;;;;;;31.90;30.20;;;-1.70;99.90;;;;;;5025288;28;20131;-72
2021/03/20 01:45:29;;;;;;;33.70;31.98;;;-1.70;99.90;;;;;;4999838;28;20030;-72
2021/03/20 01:48:28;;;;;;;34.55;32.63;;;-1.70;99.90;;;;;;5012908;28;20029;-72
2021/03/20 01:51:02;;;;;;;5.97;5.38;;;-1.70;99.90;;;;;;5016516;28;20425;-72
2021/03/20 01:53:48;;;;;;;5.45;4.90;;;-1.80;99.90;;;;;;5017315;28;20440;-72
2021/03/20 01:56:21;;;;;;;37.20;35.30;;;-1.90;99.90;;;;;;5024602;28;20025;-72
2021/03/20 01:58:49;;;;;;;8.63;6.10;;;-2.00;99.90;;;;;;5025098;28;20029;-72
2021/03/20 02:01:24;;;;;;;6.13;5.32;;;-2.00;99.90;;;;;;5012467;28;20056;-72
2021/03/20 02:03:50;;;;;;;31.27;29.55;;;-2.00;99.90;;;;;;5005692;28;20037;-72
2021/03/20 02:06:16;;;;;;;33.33;31.50;;;-2.10;99.90;;;;;;5020736;28;20033;-71
2021/03/20 02:08:45;;;;;;;7.15;4.82;;;-2.10;99.90;;;;;;5025366;28;20442;-72
2021/03/20 02:11:30;;;;;;;30.80;29.20;;;-2.10;99.90;;;;;;5024538;28;20029;-72
2021/03/20 02:14:13;;;;;;;32.03;30.27;;;-2.20;99.90;;;;;;5022728;28;20068;-72
2021/03/20 02:16:50;;;;;;;39.63;37.67;;;-2.20;99.90;;;;;;5009511;28;20025;-72
2021/03/20 02:19:54;;;;;;;7.32;5.95;;;-2.20;99.90;;;;;;5012190;28;20029;-71
2021/03/20 02:22:58;;;;;;;6.47;5.65;;;-2.20;99.90;;;;;;5010861;28;20057;-70
2021/03/20 02:25:48;;;;;;;8.70;5.55;;;-2.30;99.90;;;;;;5011116;28;20459;-71
2021/03/20 02:28:20;;;;;;;7.45;5.50;;;-2.20;99.90;;;;;;5020261;28;20025;-71
2021/03/20 02:31:10;;;;;;;6.80;5.97;;;-2.30;99.90;;;;;;5031658;28;20029;-71
2021/03/20 02:34:16;;;;;;;8.88;5.75;;;-2.30;99.90;;;;;;5032173;28;20033;-71
2021/03/20 02:37:05;;;;;;;35.67;33.78;;;-2.30;99.90;;;;;;5020794;28;20088;-71
2021/03/20 02:40:02;;;;;;;33.50;31.67;;;-2.40;99.90;;;;;;4999858;28;20681;-71
2021/03/20 02:42:51;;;;;;;7.15;5.70;;;-2.40;99.90;;;;;;5025116;28;20040;-71
2021/03/20 02:45:35;;;;;;;7.25;6.05;;;-2.40;99.90;;;;;;5010740;28;20026;-72
2021/03/20 02:48:28;;;;;;;5.82;5.20;;;-2.40;99.90;;;;;;5022060;28;20104;-72
2021/03/20 02:51:07;;;;;;;6.63;5.53;;;-2.50;99.90;;;;;;5030130;28;20055;-71
2021/03/20 02:54:18;;;;;;;5.10;4.70;;;-2.40;99.90;;;;;;5031747;28;20052;-72
2021/03/20 02:56:54;;;;;;;35.50;33.70;;;-2.40;99.90;;;;;;5016775;28;20029;-72
2021/03/20 02:59:23;;;;;;;5.47;4.95;;;-2.50;99.90;;;;;;5010604;28;20041;-71
2021/03/20 03:01:49;;;;;;;39.97;37.92;;;-2.50;99.90;;;;;;5024789;28;20504;-71
2021/03/20 03:04:20;;;;;;;37.38;35.17;;;-2.50;99.90;;;;;;5011886;28;20030;-71
2021/03/20 03:06:58;;;;;;;30.67;29.10;;;-2.60;99.90;;;;;;5029301;28;20558;-72
2021/03/20 03:09:29;;;;;;;5.65;3.95;;;-2.60;99.90;;;;;;5019316;28;20030;-71
2021/03/20 03:12:01;;;;;;;5.10;4.40;;;-2.60;99.90;;;;;;5017934;28;20018;-71
2021/03/20 03:14:53;;;;;;;4.85;4.22;;;-2.60;99.90;;;;;;5016848;28;20030;-71
2021/03/20 03:17:21;;;;;;;7.80;4.53;;;-2.60;99.90;;;;;;5011756;28;20037;-72
2021/03/20 03:20:02;;;;;;;5.60;3.72;;;-2.60;99.90;;;;;;5030344;28;20021;-72
2021/03/20 03:22:41;;;;;;;7.07;5.45;;;-2.70;99.90;;;;;;5030178;28;20030;-71
2021/03/20 03:25:10;;;;;;;5.75;5.03;;;-2.70;99.90;;;;;;5021971;28;20032;-72
2021/03/20 03:27:39;;;;;;;9.70;4.68;;;-2.70;99.90;;;;;;5010964;28;20430;-72
2021/03/20 03:30:09;;;;;;;5.00;4.50;;;-2.70;99.90;;;;;;5004315;28;20030;-71
2021/03/20 03:32:40;;;;;;;4.88;4.38;;;-2.70;99.90;;;;;;5027296;28;20018;-71
2021/03/20 03:35:13;;;;;;;5.53;4.45;;;-2.70;99.90;;;;;;5014243;28;20022;-71
2021/03/20 03:37:57;;;;;;;29.77;28.23;;;-2.70;99.90;;;;;;5013921;28;20523;-71
2021/03/20 03:40:34;;;;;;;6.40;4.97;;;-2.70;99.90;;;;;;5015222;28;20488;-71
2021/03/20 03:42:59;;;;;;;32.60;31.02;;;-2.70;99.90;;;;;;5013759;28;20025;-71
2021/03/20 03:45:25;;;;;;;7.30;5.15;;;-2.70;99.90;;;;;;5015144;28;20498;-71
2021/03/20 03:47:51;;;;;;;45.10;29.00;;;-2.80;99.90;;;;;;5015131;28;20420;-71
2021/03/20 03:50:29;;;;;;;10.23;6.88;;;-2.80;99.90;;;;;;5015012;28;20041;-71
2021/03/20 03:52:54;;;;;;;7.47;5.25;;;-2.70;99.90;;;;;;5014891;28;20491;-71
2021/03/20 03:55:21;;;;;;;7.35;4.72;;;-2.80;99.90;;;;;;5013663;28;20030;-71
2021/03/20 03:58:19;;;;;;;7.20;5.28;;;-2.90;99.90;;;;;;5014854;28;20040;-71
2021/03/20 04:01:13;;;;;;;5.80;4.82;;;-2.90;99.90;;;;;;5014102;28;20038;-71
2021/03/20 04:03:55;;;;;;;6.80;4.75;;;-2.80;99.90;;;;;;5009030;28;20152;-71
2021/03/20 04:06:47;;;;;;;6.28;4.75;;;-2.80;99.90;;;;;;5009638;28;20392;-71
2021/03/20 04:09:45;;;;;;;6.88;4.80;;;-2.80;99.90;;;;;;5014645;28;20026;-71
2021/03/20 04:12:26;;;;;;;30.88;29.25;;;-2.80;99.90;;;;;;5013267;28;20084;-72
2021/03/20 04:15:07;;;;;;;6.72;5.57;;;-2.90;99.90;;;;;;5010017;28;20385;-71
2021/03/20 04:17:46;;;;;;;8.65;5.32;;;-2.90;99.90;;;;;;5012202;28;20030;-71
2021/03/20 04:20:20;;;;;;;5.53;4.65;;;-2.90;99.90;;;;;;5014597;28;20026;-71
2021/03/20 04:22:57;;;;;;;36.22;34.22;;;-3.00;99.90;;;;;;5013287;28;20037;-71
2021/03/20 04:25:50;;;;;;;32.25;30.55;;;-3.00;99.90;;;;;;5014514;28;20033;-72
2021/03/20 04:28:29;;;;;;;8.77;5.72;;;-3.00;99.90;;;;;;5009308;28;20042;-71
2021/03/20 04:31:21;;;;;;;7.38;4.82;;;-3.00;99.90;;;;;;5000751;28;20029;-71
2021/03/20 04:34:09;;;;;;;6.45;4.80;;;-3.10;99.90;;;;;;5027635;28;20101;-71
2021/03/20 04:36:40;;;;;;;6.80;4.85;;;-3.10;99.90;;;;;;5027387;28;20057;-71
2021/03/20 04:39:08;;;;;;;7.47;4.70;;;-3.00;99.90;;;;;;5016860;28;20551;-71
2021/03/20 04:41:34;;;;;;;7.88;4.15;;;-3.00;99.90;;;;;;5003244;28;20034;-70
2021/03/20 04:44:00;;;;;;;7.90;5.30;;;-3.00;99.90;;;;;;5007770;28;20030;-70
2021/03/20 04:46:32;;;;;;;7.15;5.15;;;-3.10;99.90;;;;;;5004745;28;20038;-70
2021/03/20 04:49:09;;;;;;;7.22;5.20;;;-3.10;99.90;;;;;;5027213;28;20080;-70
2021/03/20 04:51:40;;;;;;;6.65;5.25;;;-3.10;99.90;;;;;;5013965;28;20064;-71
2021/03/20 04:54:15;;;;;;;32.80;31.10;;;-3.20;99.90;;;;;;5013889;28;20596;-71
2021/03/20 04:56:58;;;;;;;32.97;31.08;;;-3.10;99.90;;;;;;5013836;28;20492;-71
2021/03/20 04:59:37;;;;;;;37.15;35.03;;;-3.10;99.90;;;;;;5003044;28;20030;-71
2021/03/20 05:02:13;;;;;;;7.00;5.30;;;-3.20;99.90;;;;;;5012734;28;20026;-71
2021/03/20 05:04:42;;;;;;;8.40;5.70;;;-3.20;99.90;;;;;;5014236;28;20034;-71
2021/03/20 05:07:08;;;;;;;32.33;30.52;;;-3.20;99.90;;;;;;5004630;28;20058;-70
2021/03/20 05:09:34;;;;;;;9.95;6.63;;;-3.20;99.90;;;;;;5008108;28;20113;-71
2021/03/20 05:12:10;;;;;;;39.22;37.15;;;-3.20;99.90;;;;;;5013308;28;20450;-71
2021/03/20 05:14:37;;;;;;;;;;;-3.20;99.90;;;;;;5013845;28;20127;-71
2021/03/20 05:17:08;;;;;;;8.48;7.70;;;-3.20;99.90;;;;;;5012238;28;20278;-71
2021/03/20 05:19:33;;;;;;;34.72;32.72;;;-3.20;99.90;;;;;;5011925;28;20116;-70
2021/03/20 05:22:01;;;;;;;10.15;6.20;;;-3.20;99.90;;;;;;5013242;28;20106;-70
2021/03/20 05:24:38;;;;;;;6.85;6.15;;;-3.20;99.90;;;;;;5026148;28;20057;-70
2021/03/20 05:27:07;;;;;;;9.48;6.80;;;-3.20;99.90;;;;;;5013047;28;20045;-71
2021/03/20 05:29:33;;;;;;;7.90;7.20;;;-3.30;99.90;;;;;;5013023;28;20026;-71
2021/03/20 05:32:01;;;;;;;7.32;6.47;;;-3.30;99.90;;;;;;5013301;28;20506;-71
2021/03/20 05:34:31;;;;;;;41.58;39.45;;;-3.20;99.90;;;;;;5004010;28;20396;-71
2021/03/20 05:36:57;;;;;;;7.43;6.13;;;-3.20;99.90;;;;;;5019971;28;20030;-71
2021/03/20 05:39:23;;;;;;;8.43;7.57;;;-3.30;99.90;;;;;;5012793;28;20400;-72
2021/03/20 05:42:34;;;;;;;36.55;34.65;;;-3.20;99.90;;;;;;5012777;28;20447;-71
2021/03/20 05:45:17;;;;;;;43.10;40.97;;;-3.20;99.90;;;;;;5004619;28;20080;-71
2021/03/20 05:48:22;;;;;;;8.35;7.57;;;-3.00;99.90;;;;;;5032621;28;20025;-72
2021/03/20 05:51:04;;;;;;;36.00;33.80;;;-3.20;99.90;;;;;;5023896;28;20029;-71
2021/03/20 05:54:07;;;;;;;9.38;7.63;;;-3.20;99.90;;;;;;5011036;28;20080;-72
2021/03/20 05:57:10;;;;;;;13.30;8.77;;;-3.20;99.90;;;;;;5011350;28;20565;-71
2021/03/20 06:00:10;;;;;;;43.78;41.47;;;-3.30;99.90;;;;;;5012612;28;20076;-71
2021/03/20 06:02:43;;;;;;;9.82;8.77;;;-3.30;99.90;;;;;;5012324;28;20038;-71
2021/03/20 06:05:20;;;;;;;35.13;33.17;;;-3.30;99.90;;;;;;5004380;28;20454;-71
2021/03/20 06:07:51;;;;;;;38.67;36.55;;;-3.20;99.90;;;;;;5019116;28;20038;-72
2021/03/20 06:10:17;;;;;;;12.75;8.02;;;-3.10;99.90;;;;;;4999177;28;20117;-71
2021/03/20 06:13:07;;;;;;;15.18;13.35;;;-3.00;99.90;;;;;;5010145;28;20105;-71
2021/03/20 06:15:46;;;;;;;12.60;9.30;;;-3.00;99.90;;;;;;5011748;28;20022;-71
2021/03/20 06:18:42;;;;;;;10.88;9.70;;;-2.90;99.90;;;;;;5011617;28;20038;-71
2021/03/20 06:21:38;;;;;;;36.03;33.95;;;-2.80;99.90;;;;;;5007734;28;20027;-72
2021/03/20 06:24:40;;;;;;;10.15;9.30;;;-3.00;99.90;;;;;;5017835;28;20037;-70
2021/03/20 06:27:11;;;;;;;12.95;10.00;;;-2.90;99.90;;;;;;5011416;28;20053;-70
2021/03/20 06:29:43;;;;;;;47.88;24.10;;;-2.80;99.90;;;;;;5005000;28;20101;-70
2021/03/20 06:32:27;;;;;;;78.50;40.38;;;-2.60;99.90;;;;;;5018013;28;20025;-69
2021/03/20 06:35:19;;;;;;;18.45;12.48;;;-2.50;99.90;;;;;;5031266;28;20056;-70
2021/03/20 06:37:52;;;;;;;44.40;41.30;;;-2.40;99.90;;;;;;5029957;28;20040;-70
2021/03/20 06:40:25;;;;;;;9.90;8.85;;;-2.20;99.90;;;;;;5030884;28;20032;-70
2021/03/20 06:42:53;;;;;;;10.68;8.43;;;-2.10;99.90;;;;;;5029499;28;20029;-70
2021/03/20 06:45:23;;;;;;;11.30;8.98;;;-2.20;99.90;;;;;;5030922;28;20033;-70
2021/03/20 06:47:51;;;;;;;8.63;7.65;;;-2.20;99.90;;;;;;5030977;28;20108;-70
2021/03/20 06:50:24;;;;;;;9.43;8.52;;;-2.20;99.90;;;;;;5030801;28;20025;-69
2021/03/20 06:53:02;;;;;;;10.75;9.00;;;-2.20;99.90;;;;;;5030703;28;20091;-70
2021/03/20 06:55:29;;;;;;;9.82;8.88;;;-2.10;99.90;;;;;;5011905;28;20072;-69
2021/03/20 06:57:55;;;;;;;10.43;8.25;;;-2.00;99.90;;;;;;5011014;28;20423;-70
2021/03/20 07:00:34;;;;;;;9.43;8.52;;;-2.00;99.90;;;;;;5010953;28;20030;-70
2021/03/20 07:03:37;;;;;;;10.13;9.23;;;-2.00;99.90;;;;;;5010641;28;20037;-70
2021/03/20 07:06:12;;;;;;;37.50;35.45;;;-2.00;99.90;;;;;;5001924;28;20027;-69
2021/03/20 07:08:54;;;;;;;38.30;36.20;;;-2.10;99.90;;;;;;5001889;28;536703;-69
2021/03/20 07:11:28;;;;;;;9.85;8.60;;;-2.20;99.90;;;;;;5035256;28;20025;-70
2021/03/20 07:13:56;;;;;;;9.40;8.43;;;-2.20;99.90;;;;;;5035478;28;20072;-70
2021/03/20 07:16:23;;;;;;;10.82;9.55;;;-2.20;99.90;;;;;;5027572;28;20026;-70
2021/03/20 07:18:54;;;;;;;9.43;8.52;;;-2.20;99.90;;;;;;5026531;28;20029;-72
2021/03/20 07:21:36;;;;;;;11.80;8.13;;;-2.20;99.90;;;;;;5010773;28;20057;-71
2021/03/20 07:24:06;;;;;;;9.90;8.82;;;-2.20;99.90;;;;;;5022819;28;20022;-70
2021/03/20 07:26:47;;;;;;;9.38;8.43;;;-2.10;99.90;;;;;;5007831;28;20493;-70
2021/03/20 07:29:13;;;;;;;10.15;9.13;;;-2.00;99.90;;;;;;5012147;28;20669;-69
2021/03/20 07:31:58;;;;;;;32.90;31.13;;;-2.00;99.90;;;;;;5015201;28;20034;-69
2021/03/20 07:34:30;;;;;;;40.47;38.33;;;-1.90;99.90;;;;;;5015371;28;20026;-70
2021/03/20 07:37:17;;;;;;;38.13;35.92;;;-1.70;99.90;;;;;;5027214;28;20036;-70
2021/03/20 07:39:48;;;;;;;34.33;32.55;;;-1.60;99.90;;;;;;5033802;28;20416;-69
2021/03/20 07:42:24;;;;;;;8.65;7.40;;;-1.80;99.90;;;;;;5033917;28;20053;-71
2021/03/20 07:44:57;;;;;;;10.65;9.25;;;-1.90;99.90;;;;;;5033616;28;20083;-70
2021/03/20 07:47:36;;;;;;;12.32;6.88;;;-1.80;99.90;;;;;;5034415;28;20021;-70
2021/03/20 07:50:18;;;;;;;9.43;7.28;;;-1.80;99.90;;;;;;5018947;28;20084;-71
2021/03/20 07:52:46;;;;;;;8.38;7.43;;;-1.80;99.90;;;;;;5022727;28;20026;-72
2021/03/20 07:55:19;;;;;;;32.83;31.02;;;-1.60;99.90;;;;;;5033536;28;20037;-70
2021/03/20 07:57:55;;;;;;;7.55;6.07;;;-1.60;99.90;;;;;;5033521;28;20052;-70
2021/03/20 08:00:33;;;;;;;30.00;28.25;;;-1.50;99.90;;;;;;5029086;28;20030;-70
2021/03/20 08:03:19;;;;;;;7.72;7.00;;;-1.60;99.90;;;;;;5013280;28;20120;-70
2021/03/20 08:05:45;;;;;;;36.22;34.47;;;-1.60;99.90;;;;;;5014798;28;20022;-70
2021/03/20 08:08:21;;;;;;;6.57;5.82;;;-1.70;99.90;;;;;;5014485;28;20553;-70
2021/03/20 08:10:58;;;;;;;27.63;26.10;;;-1.50;99.90;;;;;;5013332;28;20065;-70
2021/03/20 08:13:44;;;;;;;7.95;5.70;;;-1.50;99.90;;;;;;5015884;28;20105;-70
2021/03/20 08:16:13;;;;;;;8.07;6.93;;;-1.60;99.90;;;;;;5010055;28;20034;-69
2021/03/20 08:18:40;;;;;;;9.82;6.93;;;-1.60;99.90;;;;;;5017663;28;20033;-70
2021/03/20 08:21:28;;;;;;;8.98;6.85;;;-1.60;99.90;;;;;;5014381;28;20022;-70
2021/03/20 08:24:17;;;;;;;32.67;30.85;;;-1.40;99.90;;;;;;5016272;28;20025;-70
2021/03/20 08:26:46;;;;;;;8.25;6.30;;;-1.50;99.90;;;;;;5003317;28;20472;-70
2021/03/20 08:29:40;;;;;;;13.85;12.32;;;-1.60;99.90;;;;;;5013878;28;20034;-71
2021/03/20 08:32:40;;;;;;;7.05;6.35;;;-1.60;99.90;;;;;;5013787;28;20089;-70
2021/03/20 08:35:38;;;;;;;7.45;5.60;;;-1.80;99.90;;;;;;5013985;28;20022;-71
2021/03/20 08:38:18;;;;;;;7.28;6.03;;;-1.80;99.90;;;;;;5002824;28;20391;-71
2021/03/20 08:41:07;;;;;;;34.42;32.53;;;-1.80;99.90;;;;;;5012438;28;20448;-71
2021/03/20 08:43:35;;;;;;;7.50;6.60;;;-1.50;99.90;;;;;;5013826;28;20029;-72
2021/03/20 08:46:24;;;;;;;7.13;6.30;;;-1.70;99.90;;;;;;5012405;28;20025;-70
2021/03/20 08:49:22;;;;;;;6.97;6.20;;;-1.80;99.90;;;;;;5012824;28;20033;-71
2021/03/20 08:52:15;;;;;;;8.23;6.43;;;-1.80;99.90;;;;;;5031718;28;20391;-71
2021/03/20 08:55:15;;;;;;;32.55;30.95;;;-1.70;99.90;;;;;;5032178;28;20491;-71
2021/03/20 08:57:46;;;;;;;7.10;6.32;;;-1.70;99.90;;;;;;5033363;28;20049;-71
2021/03/20 09:00:22;;;;;;;6.22;5.63;;;-1.50;99.90;;;;;;5016718;28;20026;-71
2021/03/20 09:02:50;;;;;;;5.03;4.53;;;-1.40;99.90;;;;;;5012029;28;20113;-71
2021/03/20 09:05:27;;;;;;;7.25;5.90;;;-1.30;99.90;;;;;;5000305;28;20427;-71
2021/03/20 09:07:59;;;;;;;6.63;5.90;;;-1.20;99.90;;;;;;5013318;28;20029;-71
2021/03/20 09:10:42;;;;;;;31.35;29.75;;;-1.20;99.90;;;;;;5013210;28;20029;-70
2021/03/20 09:13:20;;;;;;;6.18;5.40;;;-1.20;99.90;;;;;;5013079;28;20033;-72
2021/03/20 09:16:14;;;;;;;6.55;5.85;;;-1.10;99.90;;;;;;5010369;28;20026;-71
2021/03/20 09:18:40;;;;;;;6.18;5.32;;;-1.00;99.90;;;;;;5003025;28;20053;-72
2021/03/20 09:21:07;;;;;;;5.55;5.05;;;-1.00;99.90;;;;;;5015642;28;20037;-72
2021/03/20 09:23:40;;;;;;;5.93;4.80;;;-0.90;99.90;;;;;;5022093;28;20603;-71
2021/03/20 09:26:13;;;;;;;25.92;24.50;;;-0.80;99.90;;;;;;5009184;28;20027;-71
2021/03/20 09:29:13;;;;;;;6.05;4.80;;;-0.80;99.90;;;;;;5015228;28;20025;-72
2021/03/20 09:31:56;;;;;;;5.38;4.82;;;-0.80;99.90;;;;;;5030651;28;20042;-72
2021/03/20 09:34:39;;;;;;;6.13;5.38;;;-0.70;99.90;;;;;;5032788;28;20024;-70
2021/03/20 09:37:26;;;;;;;26.58;25.17;;;-0.60;99.90;;;;;;5031275;28;20064;-72
2021/03/20 09:39:55;;;;;;;7.25;4.80;;;-0.50;99.90;;;;;;5028449;28;20038;-69
2021/03/20 09:42:24;;;;;;;27.55;26.00;;;-0.30;99.90;;;;;;5015319;28;20060;-69
2021/03/20 09:45:14;;;;;;;5.97;4.65;;;0.00;99.90;;;;;;5012548;28;20565;-69
2021/03/20 09:47:52;;;;;;;29.13;27.70;;;-0.10;99.90;;;;;;5009443;28;20046;-69
2021/03/20 09:50:21;;;;;;;5.30;4.18;;;-0.10;99.90;;;;;;5012496;28;20543;-69
2021/03/20 09:53:08;;;;;;;21.27;20.10;;;0.00;99.90;;;;;;5012571;28;20025;-69
2021/03/20 09:55:41;;;;;;;25.92;24.63;;;0.00;99.90;;;;;;5012386;28;20053;-69
2021/03/20 09:58:26;;;;;;;32.13;30.58;;;0.10;99.90;;;;;;5012468;28;20029;-69
2021/03/20 10:00:57;;;;;;;32.10;30.53;;;0.40;99.90;;;;;;5012254;28;20387;-69
2021/03/20 10:03:46;;;;;;;25.80;24.50;;;0.40;99.90;;;;;;5012365;28;20069;-69
2021/03/20 10:06:37;;;;;;;31.48;29.77;;;0.50;99.90;;;;;;5012153;28;20088;-69
2021/03/20 10:09:11;;;;;;;29.15;27.73;;;0.50;99.90;;;;;;5012036;28;20164;-72
2021/03/20 10:11:40;;;;;;;29.23;27.73;;;0.60;99.90;;;;;;5015168;28;20484;-69
2021/03/20 10:14:24;;;;;;;29.60;28.10;;;0.70;99.90;;;;;;5031895;28;20026;-69
2021/03/20 10:17:15;;;;;;;18.42;17.38;;;0.70;99.90;;;;;;5018965;28;20021;-71
2021/03/20 10:19:53;;;;;;;26.08;24.67;;;0.60;99.90;;;;;;5008898;28;20038;-69
2021/03/20 10:22:27;;;;;;;21.70;20.55;;;0.50;99.90;;;;;;5011693;28;20045;-69
2021/03/20 10:24:54;;;;;;;5.03;4.53;;;0.60;99.90;;;;;;5001151;28;20026;-70
2021/03/20 10:27:26;;;;;;;21.02;19.92;;;0.40;99.90;;;;;;5013347;28;20065;-70
2021/03/20 10:29:52;;;;;;;23.52;22.27;;;0.60;99.90;;;;;;5022627;28;20026;-70
2021/03/20 10:32:21;;;;;;;19.23;17.90;;;0.60;99.90;;;;;;5012039;28;20071;-70
2021/03/20 10:34:54;;;;;;;22.40;21.10;;;0.50;99.90;;;;;;5012524;28;20022;-69
2021/03/20 10:37:28;;;;;;;24.92;23.63;;;0.60;99.90;;;;;;5011927;28;20621;-69
2021/03/20 10:40:20;;;;;;;25.15;23.90;;;0.80;99.90;;;;;;5010669;28;20030;-69
2021/03/20 10:42:49;;;;;;;26.55;25.30;;;0.90;99.90;;;;;;5011674;28;20603;-69
2021/03/20 10:45:37;;;;;;;23.95;22.63;;;0.80;99.90;;;;;;5011766;28;20037;-69
2021/03/20 10:48:10;;;;;;;24.40;23.17;;;0.60;99.90;;;;;;5011583;28;20045;-69
2021/03/20 10:50:42;;;;;;;16.55;15.60;;;0.80;99.90;;;;;;5011636;28;20169;-69
2021/03/20 10:53:18;;;;;;;24.60;23.25;;;0.90;99.90;;;;;;5011486;28;20026;-69
2021/03/20 10:55:46;;;;;;;;;;;0.90;99.90;;;;;;5020089;28;20032;-69
2021/03/20 10:58:31;;;;;;;24.02;22.73;;;0.90;99.90;;;;;;5031259;28;19905;-70
2021/03/20 11:00:57;;;;;;;26.25;24.95;;;0.80;99.90;;;;;;5031063;28;20503;-69
2021/03/20 11:03:27;;;;;;;19.63;18.60;;;1.10;99.90;;;;;;5031309;28;20475;-69
2021/03/20 11:05:53;;;;;;;19.08;17.92;;;1.40;99.90;;;;;;5026145;28;20180;-70
2021/03/20 11:08:28;;;;;;;15.23;14.23;;;1.50;99.90;;;;;;5017841;28;20543;-70
2021/03/20 11:11:09;;;;;;;19.85;18.73;;;1.80;99.90;;;;;;5029607;28;20168;-70
2021/03/20 11:14:00;;;;;;;14.68;13.80;;;1.80;99.90;;;;;;5023471;28;20037;-70
2021/03/20 11:16:27;;;;;;;11.00;10.00;;;1.60;99.90;;;;;;5011488;28;20400;-70
2021/03/20 11:19:08;;;;;;;8.70;7.95;;;1.50;99.90;;;;;;5010428;28;20067;-70
2021/03/20 11:21:41;;;;;;;5.95;5.00;;;1.50;99.90;;;;;;5010464;28;20037;-70
2021/03/20 11:24:25;;;;;;;5.45;4.95;;;1.50;99.90;;;;;;5011256;28;20033;-70
2021/03/20 11:26:52;;;;;;;5.05;4.40;;;1.80;99.90;;;;;;5027027;28;20080;-70
2021/03/20 11:29:21;;;;;;;4.80;4.40;;;1.90;99.90;;;;;;5009527;28;20527;-70
2021/03/20 11:31:49;;;;;;;6.18;4.55;;;2.20;99.90;;;;;;4998815;28;20027;-70
2021/03/20 11:34:32;;;;;;;5.32;4.80;;;2.70;99.90;;;;;;5008931;28;20026;-70
2021/03/20 11:37:01;;;;;;;5.28;4.72;;;2.80;99.40;;;;;;5024432;28;20113;-70
2021/03/20 11:39:27;;;;;;;4.72;4.32;;;3.00;99.90;;;;;;5031175;28;20068;-70
2021/03/20 11:42:06;;;;;;;5.78;4.90;;;3.10;99.90;;;;;;5031030;28;20021;-70
2021/03/20 11:44:40;;;;;;;5.78;4.90;;;3.20;99.90;;;;;;4999695;28;20479;-70
2021/03/20 11:47:06;;;;;;;5.30;4.80;;;3.30;98.00;;;;;;5000394;28;20556;-69
2021/03/20 11:49:38;;;;;;;5.35;4.85;;;3.20;99.50;;;;;;5031150;28;20096;-69
2021/03/20 11:52:06;;;;;;;5.25;4.75;;;3.00;98.00;;;;;;5031092;28;20118;-69
2021/03/20 11:54:38;;;;;;;5.30;4.47;;;3.10;98.50;;;;;;5014986;28;20609;-70
2021/03/20 11:57:45;;;;;;;5.05;4.30;;;3.00;98.40;;;;;;5013496;28;20025;-70
2021/03/20 12:00:29;;;;;;;4.75;4.35;;;3.10;95.60;;;;;;5003541;28;20487;-70
2021/03/20 12:02:55;;;;;;;4.80;4.40;;;3.10;96.00;;;;;;5034457;28;20034;-69
2021/03/20 12:05:30;;;;;;;4.78;4.25;;;3.60;94.90;;;;;;5034518;28;20032;-69
2021/03/20 12:08:38;;;;;;;6.45;4.68;;;3.80;94.50;;;;;;5019469;28;20041;-72
2021/03/20 12:11:07;;;;;;;6.22;4.95;;;4.30;93.20;;;;;;5014192;28;20044;-72
2021/03/20 12:13:43;;;;;;;5.80;4.45;;;4.50;92.40;;;;;;5014620;28;20102;-70
2021/03/20 12:16:26;;;;;;;;;;;4.40;92.20;;;;;;5014972;28;20022;-70
2021/03/20 12:19:21;;;;;;;7.75;4.65;;;4.70;92.10;;;;;;5014340;28;19905;-70
2021/03/20 12:22:06;;;;;;;4.60;4.20;;;4.90;90.20;;;;;;5033460;28;20470;-70
2021/03/20 12:24:48;;;;;;;4.15;3.75;;;5.10;90.40;;;;;;5016544;28;20484;-69
2021/03/20 12:27:27;;;;;;;5.20;4.15;;;5.10;86.00;;;;;;5014163;28;20495;-69
2021/03/20 12:30:00;;;;;;;6.70;4.50;;;5.20;83.90;;;;;;5014117;28;20060;-69
2021/03/20 12:32:33;;;;;;;7.25;6.03;;;5.40;81.50;;;;;;5012670;28;20021;-70
2021/03/20 12:35:14;;;;;;;5.40;4.90;;;6.20;88.70;;;;;;5013014;28;20496;-69
2021/03/20 12:37:39;;;;;;;7.13;4.78;;;6.00;85.70;;;;;;5014153;28;20558;-71
2021/03/20 12:40:05;;;;;;;6.18;4.90;;;5.90;88.50;;;;;;5014096;28;20077;-71
2021/03/20 12:42:31;;;;;;;5.97;4.53;;;5.40;84.40;;;;;;5013735;28;20116;-71
2021/03/20 12:44:56;;;;;;;4.90;4.50;;;5.20;85.50;;;;;;5013996;28;20104;-71
2021/03/20 12:47:22;;;;;;;5.35;4.10;;;5.10;85.10;;;;;;5013732;28;20064;-71
2021/03/20 12:49:47;;;;;;;5.22;4.63;;;5.10;83.90;;;;;;5023728;28;20029;-71
2021/03/20 12:52:21;;;;;;;4.93;4.47;;;5.00;86.10;;;;;;5028746;28;20732;-71
2021/03/20 12:54:50;;;;;;;6.30;5.18;;;4.90;85.90;;;;;;5013945;28;20496;-71
2021/03/20 12:57:22;;;;;;;5.88;4.43;;;5.20;87.90;;;;;;5006712;28;20029;-71
2021/03/20 12:59:48;;;;;;;4.80;4.30;;;5.40;84.80;;;;;;5018546;28;20037;-71
2021/03/20 13:02:14;;;;;;;6.18;4.57;;;5.20;82.70;;;;;;5018146;28;20617;-71
2021/03/20 13:04:40;;;;;;;4.90;4.40;;;4.60;82.60;;;;;;5019810;28;20472;-72
2021/03/20 13:07:09;;;;;;;4.15;3.75;;;4.10;82.00;;;;;;5013333;28;20092;-72
2021/03/20 13:09:36;;;;;;;4.93;4.43;;;4.00;81.20;;;;;;5025443;28;20029;-72
2021/03/20 13:12:02;;;;;;;5.10;4.60;;;4.00;81.60;;;;;;5013365;28;20021;-72
2021/03/20 13:14:28;;;;;;;6.50;4.82;;;4.00;80.90;;;;;;5001004;28;20077;-71
2021/03/20 13:16:53;;;;;;;5.07;4.57;;;4.20;85.40;;;;;;5019908;28;20439;-72
2021/03/20 13:19:19;;;;;;;5.38;4.88;;;4.40;83.30;;;;;;5014916;28;20037;-72
2021/03/20 13:21:45;;;;;;;5.40;4.53;;;4.60;82.90;;;;;;5032806;28;20022;-72
2021/03/20 13:24:11;;;;;;;5.25;4.75;;;4.30;83.50;;;;;;5026653;28;20034;-71
2021/03/20 13:26:36;;;;;;;5.20;4.70;;;4.60;84.20;;;;;;5013049;28;20392;-71